Weather observations for the past three days for
Coeur d'Alene Airport - Pappy Boyington Field
Imperial (Metric)
Date Time (pdt) Wind (mph) Vis. (mi.) Weather Sky Cond. Temperature (ºF) Relative Humidity Wind Chill (°F) Heat Index (°F) Pressure Precipitation (in)
Air Dwpt 6 hour altimeter (in) sea level (mb) 1 hr 3 hr 6 hr
Max. Min.
01 18:56 N 5 10.00 Fair CLR 73 46.9 40% 29.77 1008.5
01 17:56 S 5 10.00 Fair CLR 75 46 36% 77 29.78 1008.7
01 16:56 S 8 10.00 Mostly Cloudy BKN095 75 45 77 73 34% 77 29.78 1009.0
01 15:56 S 6 10.00 Overcast OVC100 75.9 43 31% 77 29.8 1009.3
01 14:56 SE 16 G 20 10.00 Light Rain FEW090 OVC110 75.9 46 35% 78 29.8 1009.5
01 13:56 SW 7 10.00 Mostly Cloudy FEW070 SCT100 BKN110 77 46 33% 78 29.8 1009.2
01 12:56 N 10 10.00 Fair CLR 75.9 46.9 36% 78 29.77 1008.2
01 11:56 N 15 10.00 Fair CLR 75.9 46 35% 78 29.77 1008.1
01 10:56 N 17 10.00 A Few Clouds FEW002 73.9 46.9 73.9 55 38% 29.78 1008.4
01 09:56 N 15 10.00 A Few Clouds FEW003 70 48 46% 29.8 1009.2
01 08:56 NE 17 G 21 10.00 Fair CLR 64.9 48 54% 29.82 1010.0
01 07:56 NE 15 10.00 Fair CLR 62.1 46.9 58% 29.83 1010.4
01 06:56 NE 9 10.00 Fair CLR 57 46.9 69% 29.83 1010.4
01 05:56 NE 9 10.00 Fair CLR 55 46 72% 29.83 1010.4
01 04:56 E 10 10.00 Fair CLR 55 45 63 55 69% 29.84 1010.5
01 03:56 E 9 10.00 Fair CLR 55.9 44.1 65% 29.83 1010.4
01 02:56 E 9 10.00 Fair CLR 57 43 60% 29.83 1010.4
01 01:56 E 8 10.00 Fair CLR 59 43 56% 29.83 1010.3
01 00:56 E 10 10.00 Fair CLR 60.1 42.1 52% 29.84 1010.7
31 23:56 E 7 10.00 Fair CLR 60.1 42.1 52% 29.84 1010.7
31 22:56 E 7 10.00 Fair CLR 62.1 41 82 60.1 46% 29.84 1010.9
31 21:56 E 5 10.00 Fair CLR 64.9 41 42% 29.86 1011.3
31 20:56 NE 7 8.00 Fair CLR 66.9 41 39% 29.86 1011.8
31 19:56 N 5 10.00 Fair CLR 72 39.9 31% 29.86 1011.7
31 18:56 Calm 10.00 Fair CLR 79 37.9 23% 78 29.86 1011.9
31 17:56 N 3 10.00 Fair CLR 80.1 37.9 22% 79 29.88 1012.5
31 16:56 N 3 10.00 Fair CLR 80.1 37.9 81 70 22% 79 29.9 1013.1
31 15:56 Calm 10.00 Fair CLR 81 37.9 21% 79 29.91 1013.4
31 14:56 Vrbl 6 8.00 Fair CLR 79 39 24% 78 29.93 1013.9
31 13:56 Calm 10.00 Fair CLR 78.1 39 25% 78 29.95 1014.8
31 12:56 Calm 8.00 Fair CLR 75 37 25% 77 29.98 1015.8
31 11:56 Vrbl 3 10.00 Fair CLR 73 39.9 30% 30.01 1016.8
31 10:56 E 6 10.00 Fair CLR 70 42.1 70 43 37% 30.03 1017.4
31 08:56 NE 9 10.00 Fair CLR 60.1 43 53% 30.05 1018.7
31 07:56 NE 7 10.00 Fair CLR 54 39.9 59% 30.06 1019.0
31 06:56 E 3 10.00 Fair CLR 46.9 37 69% 30.05 1019.0
31 05:56 E 3 10.00 Fair CLR 43 36 76% 30.04 1018.7
31 04:56 NE 6 10.00 Fair CLR 46 37.9 57 45 73% 44 30.04 1018.5
31 03:56 E 6 10.00 Fair CLR 48 39 71% 46 30.03 1018.2
31 02:56 E 6 10.00 Fair CLR 52 39 61% 30.03 1017.9
31 01:56 E 5 10.00 Fair CLR 52 39.9 64% 30.04 1018.2
31 00:56 Calm 10.00 Fair CLR 54 39.9 59% 30.04 1018.1
30 23:56 E 3 10.00 Fair CLR 53.1 39.9 61% 30.04 1018.2
30 22:56 Calm 10.00 Fair CLR 57 39 71.1 55 51% 30.04 1018.2
30 21:56 Calm 10.00 Fair CLR 57.9 37 46% 30.04 1018.5
30 20:56 S 3 10.00 Fair CLR 60.1 37 42% 30.04 1018.5
30 19:56 S 5 10.00 Fair CLR 64 36 35% 30.03 1018.0
30 18:56 SW 6 10.00 Fair CLR 66.9 37 33% 30.02 1017.7
30 17:56 W 9 10.00 Fair CLR 70 36 29% 30.03 1017.7
30 16:56 W 12 G 18 10.00 Fair CLR 70 37 71.1 62.1 30% 30.03 1017.6
30 15:56 SW 13 G 18 10.00 Fair CLR 70 37 30% 30.04 1018.0
30 14:56 SW 13 G 20 10.00 Fair CLR 70 37.9 31% 30.05 1018.4
30 13:56 SW 16 G 20 10.00 A Few Clouds FEW060 68 39 35% 30.06 1019.0
30 12:56 W 13 G 22 10.00 Fair CLR 66.9 39.9 37% 30.07 1019.1
30 11:56 W 16 G 22 10.00 A Few Clouds FEW049 66 39 37% 30.07 1019.5
30 09:56 S 6 10.00 Mostly Cloudy BKN095 55 39.9 57% 30.09 1020.4
30 08:56 SW 6 10.00 Partly Cloudy SCT090 53.1 39.9 61% 30.08 1020.1
30 06:56 S 5 10.00 Fair CLR 51.1 39.9 66% 30.05 1018.9
30 05:56 Calm 10.00 Fair CLR 51.1 41 69% 30.03 1018.2
30 04:56 Calm 10.00 Overcast OVC100 53.1 43 55 51.1 69% 30.03 1018.1
30 03:56 S 3 10.00 Overcast SCT090 OVC120 53.1 43 69% 30.02 1017.6
30 02:56 S 7 10.00 Overcast OVC070 54 44.1 69% 30.02 1017.3
30 01:56 S 5 10.00 Overcast OVC060 54 41 62% 30.01 1017.1
30 00:56 W 3 10.00 Overcast OVC100 53.1 39 59% 30 1017.0
29 23:56 SW 6 10.00 Mostly Cloudy BKN100 BKN120 53.1 39 59% 29.99 1016.7
29 22:56 W 8 10.00 Fair CLR 52 37.9 64.9 51.1 59% 29.99 1016.6
29 21:56 W 7 10.00 Fair CLR 55 37.9 53% 29.99 1016.4
29 20:56 W 13 10.00 Partly Cloudy SCT110 57.9 37.9 48% 29.99 1016.6
29 19:56 W 13 10.00 Fair CLR 60.1 37.9 44% 29.97 1015.9
Date Time (pdt) Wind (mph) Vis. (mi.) Weather Sky Cond. Air Dwpt Max. Min. Relative Humidity Wind Chill (°F) Heat Index (°F) altimeter (in) sea level (mb) 1 hr 3 hr 6 hr
6 hour
Temperature (ºF) Pressure Precipitation (in)